A- A+ FrançaisEnglishEspañol中国

Services sur Internet Soldes sur Internet Des idées de cadeaux Météo Météo aéro

La météo à : Autours de vous Tarbes-Lourdes-PyrénéesCreil-Senlis Persan-Beaumont Le-Plessis-Belleville

La météo aéronautique pour les pilotes, la préparation du vol avec les METAR (METeorological Aerodrome Report, message d'observation des conditions météorologiques pour l'aviation) et Les TAF (Terminal Aerodrome Forecast : message de prévision à court terme des conditions météorologiques pour l'aviation). Et les autres ressources comme les VAC (Visual Approch Chart) et les NOTAM (Notice To Airman) pour préprer les vols.

Aéroport Bydgoszcz Szweredowo (Pologne) / OACI EPBY/ IATA BZG

L'altitude de l'aéroport Bydgoszcz Szweredowo est de 72 m = 236 ft. Il est situé à proximité de Bydgoszcz (Pologne). La météo générale à 5 jours est disponible pour Bydgoszcz situé à 5.5 km.

METAR de l'aéroport Bydgoszcz Szweredowo - EPBY

EPBY 071130Z 25017KT 9000 -RA SCT006 OVC008 07/05 Q1001

Décodage du METAR de l'aéroport Bydgoszcz Szweredowo (PL)

METAR émis par EPBY le samedi 7 décembre 2019 à 11:30 heure TU, il y a 4 minutes.

La visibilité est de 9 km = 5.6 sm.

La température est de 7°C = 45 °F et le point rosée est de 5°C = 41 °F . Ce qui correspond à 87% d'humidité relative.

Le QNH est de 1001 hPa = 29.56 inHg

Vent de 17 kt = 31 km/h, orienté à 250°.

Nuages : Nuages épars à 600 ft = 180 mètres. Couverture nuageuse soudée à 800 ft = 240 mètres.

-RA

TAF de l'aéroport Bydgoszcz Szweredowo - EPBY

EPBY 070530Z 0706/0806 21012KT 7000 -RA BKN005 OVC012 TEMPO 0706/0711 4000 RA BR BKN004 OVC008 BECMG 0710/0712 27010KT SCT025 TEMPO 0711/0720 27017G32KT 4000 SHRA SCT006 BKN015CB BECMG 0723/0801 21010KT -RA BKN008

EPBY 070530Z 0706/0806 21012KT 7000 faible RA couverture nuageuse fragmentée à 005 couverture nuageuse soudée à 012 temporairement 0706/0711 4000 pluie brume couverture nuageuse fragmentée à 004 couverture nuageuse soudée à 008 devenant 0710/0712 27010KT nuages épars à 025 temporairement 0711/0720 27017G32KT 4000 SHRA nuages épars à 006 couverture nuageuse fragmentée à 015CB devenant 0723/0801 21010KT faible RA couverture nuageuse fragmentée à 008

Aéroport à proximité de Bydgoszcz Szweredowo

Météo générale à 5 jours à Bydgoszcz (5.5 km)Aéroport Bydgoszcz Biedaszkowo (2 km)Aéroport Inowroclaw Mil (38 km)Aéroport Inowroclaw Civil (38 km)Aéroport Torun (39 km)Aéroport Grudziadz Lisie Katy (75 km)Aéroport Powidz (80 km)

Vue aérienne de l'aéroport Bydgoszcz Szweredowo

NOTAM de l'aéroport Bydgoszcz Szweredowo

Les NOTAM sont fournis sans aucune garantie de leur actualité. Le pilote est le seul responsable de la vérification de sa validité avant de l'utiliser opérationnellement pour préparer un vol ou l'utiliser lors de sa navigation.

Pas de NOTAM

Sources des données